createdAt,value
2017-10-15T00:00:06.024Z,0
2017-10-15T00:01:06.047Z,0
2017-10-15T00:02:06.070Z,0
2017-10-15T00:03:06.401Z,0
2017-10-15T00:04:06.218Z,0
2017-10-15T00:05:06.481Z,0
2017-10-15T00:06:06.152Z,0
2017-10-15T00:07:06.168Z,0
2017-10-15T00:08:06.215Z,0
2017-10-15T00:09:06.220Z,0
2017-10-15T00:10:06.483Z,0
2017-10-15T00:11:06.275Z,0
2017-10-15T00:12:06.616Z,0
2017-10-15T00:13:06.310Z,0
2017-10-15T00:14:06.484Z,0
2017-10-15T00:15:06.680Z,0
2017-10-15T00:16:06.377Z,0
2017-10-15T00:17:06.390Z,0
2017-10-15T00:18:06.753Z,0
2017-10-15T00:19:06.431Z,0
2017-10-15T00:20:06.964Z,0
2017-10-15T00:21:06.658Z,0
2017-10-15T00:22:06.501Z,0
2017-10-15T00:23:06.567Z,0
2017-10-15T00:24:06.658Z,0
2017-10-15T00:25:07.200Z,0
2017-10-15T00:26:06.631Z,0
2017-10-15T00:27:06.646Z,0
2017-10-15T00:28:06.630Z,0
2017-10-15T00:29:06.684Z,0
2017-10-15T00:30:07.117Z,0
2017-10-15T00:31:06.725Z,0
2017-10-15T00:32:07.110Z,0
2017-10-15T00:33:06.872Z,0
2017-10-15T00:34:06.765Z,0
2017-10-15T00:35:06.777Z,0
2017-10-15T00:36:06.806Z,0
2017-10-15T00:37:07.124Z,0
2017-10-15T00:38:07.359Z,0
2017-10-15T00:39:06.937Z,0
2017-10-15T00:40:06.941Z,0
2017-10-15T00:41:06.911Z,0
2017-10-15T00:42:06.933Z,0
2017-10-15T00:43:07.003Z,0
2017-10-15T00:44:07.514Z,0
2017-10-15T00:45:07.013Z,0
2017-10-15T00:46:07.015Z,0
2017-10-15T00:47:07.038Z,0
2017-10-15T00:48:07.214Z,0
2017-10-15T00:49:07.083Z,0
2017-10-15T00:50:07.432Z,0
2017-10-15T00:51:07.127Z,0
2017-10-15T00:52:07.472Z,0
2017-10-15T00:53:07.172Z,0
2017-10-15T00:54:07.194Z,0
2017-10-15T00:55:13.547Z,0
2017-10-15T00:56:07.236Z,0
2017-10-15T00:57:07.250Z,0
2017-10-15T00:58:07.424Z,0
2017-10-15T00:59:07.303Z,0
2017-10-15T01:00:07.702Z,0
2017-10-15T01:01:07.679Z,0
2017-10-15T01:02:07.365Z,0
2017-10-15T01:03:07.386Z,0
2017-10-15T01:04:07.405Z,0
2017-10-15T01:05:07.453Z,0
2017-10-15T01:06:07.453Z,0
2017-10-15T01:07:07.481Z,0
2017-10-15T01:08:07.652Z,0
2017-10-15T01:09:07.520Z,0
2017-10-15T01:10:07.581Z,0
2017-10-15T01:11:07.561Z,0
2017-10-15T01:12:07.585Z,0
2017-10-15T01:13:07.605Z,0
2017-10-15T01:14:07.624Z,0
2017-10-15T01:15:07.647Z,0
2017-10-15T01:16:07.673Z,0
2017-10-15T01:17:08.020Z,0
2017-10-15T01:18:08.060Z,0
2017-10-15T01:19:07.732Z,0
2017-10-15T01:20:08.026Z,0
2017-10-15T01:21:07.779Z,0
2017-10-15T01:22:07.813Z,0
2017-10-15T01:23:07.818Z,0
2017-10-15T01:24:08.170Z,0
2017-10-15T01:25:07.862Z,0
2017-10-15T01:26:07.877Z,0
2017-10-15T01:27:07.951Z,0
2017-10-15T01:28:07.927Z,0
2017-10-15T01:29:08.278Z,0
2017-10-15T01:30:07.983Z,0
2017-10-15T01:31:08.126Z,0
2017-10-15T01:32:09.520Z,0
2017-10-15T01:33:08.360Z,0
2017-10-15T01:34:08.065Z,0
2017-10-15T01:35:08.072Z,0
2017-10-15T01:36:08.097Z,0
2017-10-15T01:37:08.118Z,0
2017-10-15T01:38:08.155Z,0
2017-10-15T01:39:08.503Z,0
2017-10-15T01:40:08.185Z,0
2017-10-15T01:41:08.235Z,0
2017-10-15T01:42:08.707Z,0
2017-10-15T01:43:08.580Z,0
2017-10-15T01:44:08.264Z,0
2017-10-15T01:45:08.311Z,0
2017-10-15T01:46:08.640Z,0
2017-10-15T01:47:08.345Z,0
2017-10-15T01:48:08.382Z,0
2017-10-15T01:49:08.725Z,0
2017-10-15T01:50:08.756Z,0
2017-10-15T01:51:08.415Z,0
2017-10-15T01:52:08.470Z,0
2017-10-15T01:53:08.572Z,0
2017-10-15T01:54:09.128Z,0
2017-10-15T01:55:08.513Z,0
2017-10-15T01:56:08.857Z,0
2017-10-15T01:57:08.602Z,0
2017-10-15T01:58:08.564Z,0
2017-10-15T01:59:08.903Z,0
2017-10-15T02:00:08.932Z,0
2017-10-15T02:01:08.635Z,0
2017-10-15T02:02:09.100Z,0
2017-10-15T02:03:08.671Z,0
2017-10-15T02:04:08.691Z,0
2017-10-15T02:05:09.211Z,0
2017-10-15T02:06:08.735Z,0
2017-10-15T02:07:08.755Z,0
2017-10-15T02:08:08.781Z,0
2017-10-15T02:09:08.802Z,0
2017-10-15T02:10:08.830Z,0
2017-10-15T02:11:08.839Z,0
2017-10-15T02:12:08.863Z,0
2017-10-15T02:13:09.006Z,0
2017-10-15T02:14:08.899Z,0
2017-10-15T02:15:08.927Z,0
2017-10-15T02:16:09.001Z,0
2017-10-15T02:17:08.971Z,0
2017-10-15T02:18:11.714Z,0
2017-10-15T02:19:09.618Z,0
2017-10-15T02:20:09.210Z,0
2017-10-15T02:21:09.057Z,0
2017-10-15T02:22:09.069Z,0
2017-10-15T02:23:09.100Z,0
2017-10-15T02:24:09.232Z,0
2017-10-15T02:25:09.509Z,0
2017-10-15T02:26:09.242Z,0
2017-10-15T02:27:09.172Z,0
2017-10-15T02:28:09.192Z,0
2017-10-15T02:29:09.211Z,0
2017-10-15T02:30:09.239Z,0
2017-10-15T02:31:09.255Z,0
2017-10-15T02:32:09.312Z,0
2017-10-15T02:33:09.298Z,0
2017-10-15T02:34:09.798Z,0
2017-10-15T02:35:09.336Z,0
2017-10-15T02:36:09.371Z,0
2017-10-15T02:37:09.387Z,0
2017-10-15T02:38:09.471Z,0
2017-10-15T02:39:09.426Z,0
2017-10-15T02:40:09.444Z,0
2017-10-15T02:41:09.463Z,0
2017-10-15T02:42:09.487Z,0
2017-10-15T02:43:09.507Z,0
2017-10-15T02:44:09.538Z,0
2017-10-15T02:45:09.758Z,0
2017-10-15T02:46:09.583Z,0
2017-10-15T02:47:09.962Z,0
2017-10-15T02:48:09.617Z,0
2017-10-15T02:49:09.778Z,0
2017-10-15T02:50:09.663Z,0
2017-10-15T02:51:09.995Z,0
2017-10-15T02:52:09.696Z,0
2017-10-15T02:53:09.722Z,0
2017-10-15T02:54:09.739Z,0
2017-10-15T02:55:09.760Z,0
2017-10-15T02:56:09.913Z,0
2017-10-15T02:57:09.803Z,0
2017-10-15T02:58:09.820Z,0
2017-10-15T02:59:09.844Z,0
2017-10-15T03:00:09.993Z,0
2017-10-15T03:01:09.886Z,0
2017-10-15T03:02:09.953Z,0
2017-10-15T03:03:09.921Z,0
2017-10-15T03:04:09.943Z,0
2017-10-15T03:05:09.969Z,0
2017-10-15T03:06:10.003Z,0
2017-10-15T03:07:10.013Z,0
2017-10-15T03:08:10.355Z,0
2017-10-15T03:09:10.373Z,0
2017-10-15T03:10:10.389Z,0
2017-10-15T03:11:10.100Z,0
2017-10-15T03:12:10.253Z,0
2017-10-15T03:13:10.129Z,0
2017-10-15T03:14:10.160Z,0
2017-10-15T03:15:10.218Z,0
2017-10-15T03:16:10.199Z,0
2017-10-15T03:17:10.229Z,0
2017-10-15T03:18:10.536Z,0
2017-10-15T03:19:10.250Z,0
2017-10-15T03:20:10.612Z,0
2017-10-15T03:21:10.299Z,0
2017-10-15T03:22:10.313Z,0
2017-10-15T03:23:10.388Z,0
2017-10-15T03:24:10.357Z,0
2017-10-15T03:25:10.705Z,0
2017-10-15T03:26:10.401Z,0
2017-10-15T03:27:10.742Z,0
2017-10-15T03:28:10.533Z,0
2017-10-15T03:29:10.460Z,0
2017-10-15T03:30:10.806Z,0
2017-10-15T03:31:10.830Z,0
2017-10-15T03:32:10.524Z,0
2017-10-15T03:33:10.592Z,0
2017-10-15T03:34:10.752Z,0
2017-10-15T03:35:10.965Z,0
2017-10-15T03:36:10.602Z,0
2017-10-15T03:37:10.618Z,0
2017-10-15T03:38:10.640Z,0
2017-10-15T03:39:10.709Z,0
2017-10-15T03:40:10.685Z,0
2017-10-15T03:41:10.708Z,0
2017-10-15T03:42:10.723Z,0
2017-10-15T03:43:10.747Z,0
2017-10-15T03:44:10.766Z,0
2017-10-15T03:45:10.807Z,0
2017-10-15T03:46:10.819Z,0
2017-10-15T03:47:11.149Z,0
2017-10-15T03:48:10.848Z,0
2017-10-15T03:49:10.925Z,0
2017-10-15T03:50:11.027Z,0
2017-10-15T03:51:10.917Z,0
2017-10-15T03:52:10.929Z,0
2017-10-15T03:53:10.959Z,0
2017-10-15T03:54:11.308Z,0
2017-10-15T03:55:11.110Z,0
2017-10-15T03:56:11.275Z,0
2017-10-15T03:57:11.038Z,0
2017-10-15T03:58:11.048Z,0
2017-10-15T03:59:11.069Z,0
2017-10-15T04:00:11.300Z,0
2017-10-15T04:01:11.439Z,0
2017-10-15T04:02:11.132Z,0
2017-10-15T04:03:11.486Z,0
2017-10-15T04:04:11.178Z,0
2017-10-15T04:05:11.518Z,0
2017-10-15T04:06:11.574Z,0
2017-10-15T04:07:11.615Z,0
2017-10-15T04:08:11.377Z,0
2017-10-15T04:09:11.280Z,0
2017-10-15T04:10:11.586Z,0
2017-10-15T04:11:11.326Z,0
2017-10-15T04:12:11.337Z,0
2017-10-15T04:13:11.364Z,0
2017-10-15T04:14:11.374Z,0
2017-10-15T04:15:11.402Z,0
2017-10-15T04:16:11.419Z,0
2017-10-15T04:17:11.442Z,0
2017-10-15T04:18:11.457Z,0
2017-10-15T04:19:11.677Z,0
2017-10-15T04:20:11.508Z,0
2017-10-15T04:21:11.660Z,0
2017-10-15T04:22:11.547Z,0
2017-10-15T04:23:11.613Z,0
2017-10-15T04:24:11.588Z,0
2017-10-15T04:25:11.599Z,0
2017-10-15T04:26:11.641Z,0
2017-10-15T04:27:11.663Z,0
2017-10-15T04:28:11.664Z,0
2017-10-15T04:29:11.683Z,0
2017-10-15T04:30:12.258Z,0
2017-10-15T04:31:12.016Z,0
2017-10-15T04:32:12.090Z,0
2017-10-15T04:33:11.766Z,0
2017-10-15T04:34:11.795Z,0
2017-10-15T04:35:11.819Z,0
2017-10-15T04:36:11.822Z,0
2017-10-15T04:37:11.841Z,0
2017-10-15T04:38:11.868Z,0
2017-10-15T04:39:11.933Z,0
2017-10-15T04:40:11.922Z,0
2017-10-15T04:41:11.940Z,0
2017-10-15T04:42:12.440Z,0
2017-10-15T04:43:12.291Z,0
2017-10-15T04:44:11.982Z,0
2017-10-15T04:45:12.015Z,0
2017-10-15T04:46:12.028Z,0
2017-10-15T04:47:12.041Z,0
2017-10-15T04:48:12.077Z,0
2017-10-15T04:49:12.424Z,0
2017-10-15T04:50:12.109Z,0
2017-10-15T04:51:12.127Z,0
2017-10-15T04:52:12.158Z,0
2017-10-15T04:53:12.513Z,0
2017-10-15T04:54:12.191Z,0
2017-10-15T04:55:12.207Z,0
2017-10-15T04:56:12.294Z,0
2017-10-15T04:57:12.252Z,0
2017-10-15T04:58:12.279Z,0
2017-10-15T04:59:12.290Z,0
2017-10-15T05:00:12.312Z,0
2017-10-15T05:01:12.341Z,0
2017-10-15T05:02:12.353Z,0
2017-10-15T05:03:12.370Z,4
2017-10-15T05:04:12.445Z,4
2017-10-15T05:05:12.660Z,0
2017-10-15T05:06:12.432Z,4
2017-10-15T05:07:12.448Z,0
2017-10-15T05:08:12.477Z,4
2017-10-15T05:09:12.502Z,4
2017-10-15T05:10:12.514Z,4
2017-10-15T05:11:12.578Z,4
2017-10-15T05:12:12.900Z,8
2017-10-15T05:13:12.574Z,8
2017-10-15T05:14:12.588Z,12
2017-10-15T05:15:13.098Z,12
2017-10-15T05:16:12.954Z,20
2017-10-15T05:17:12.663Z,20
2017-10-15T05:18:12.672Z,24
2017-10-15T05:19:12.695Z,32
2017-10-15T05:20:13.037Z,36
2017-10-15T05:21:12.734Z,44
2017-10-15T05:22:12.751Z,52
2017-10-15T05:23:13.101Z,68
2017-10-15T05:24:12.805Z,76
2017-10-15T05:25:12.821Z,88
2017-10-15T05:26:12.832Z,100
2017-10-15T05:27:12.852Z,116
2017-10-15T05:28:12.957Z,132
2017-10-15T05:29:13.222Z,148
2017-10-15T05:30:12.913Z,168
2017-10-15T05:31:12.934Z,188
2017-10-15T05:32:13.284Z,212
2017-10-15T05:33:12.979Z,232
2017-10-15T05:34:12.992Z,256
2017-10-15T05:35:13.016Z,280
2017-10-15T05:36:13.038Z,308
2017-10-15T05:37:13.059Z,332
2017-10-15T05:38:13.083Z,356
2017-10-15T05:39:13.097Z,384
2017-10-15T05:40:13.121Z,416
2017-10-15T05:41:13.516Z,440
2017-10-15T05:42:13.163Z,468
2017-10-15T05:43:13.439Z,500
2017-10-15T05:44:13.193Z,532
2017-10-15T05:45:13.226Z,560
2017-10-15T05:46:13.288Z,588
2017-10-15T05:47:13.273Z,620
2017-10-15T05:48:13.278Z,648
2017-10-15T05:49:13.300Z,680
2017-10-15T05:50:13.325Z,708
2017-10-15T05:51:13.337Z,740
2017-10-15T05:52:13.361Z,772
2017-10-15T05:53:13.391Z,800
2017-10-15T05:54:13.721Z,832
2017-10-15T05:55:13.500Z,860
2017-10-15T05:56:13.448Z,888
2017-10-15T05:57:13.479Z,916
2017-10-15T05:58:13.483Z,944
2017-10-15T05:59:13.834Z,972
2017-10-15T06:00:13.547Z,1000
2017-10-15T06:01:13.547Z,1028
2017-10-15T06:02:13.562Z,1060
2017-10-15T06:03:13.587Z,1092
2017-10-15T06:04:13.608Z,1124
2017-10-15T06:05:13.629Z,1156
2017-10-15T06:06:13.648Z,1184
2017-10-15T06:07:13.670Z,1220
2017-10-15T06:08:13.689Z,1252
2017-10-15T06:09:14.023Z,1284
2017-10-15T06:10:13.723Z,1316
2017-10-15T06:11:13.744Z,1348
2017-10-15T06:12:13.772Z,1380
2017-10-15T06:13:13.806Z,1412
2017-10-15T06:14:13.804Z,1448
2017-10-15T06:15:13.837Z,1484
2017-10-15T06:16:13.850Z,1520
2017-10-15T06:17:13.867Z,1552
2017-10-15T06:18:13.889Z,1588
2017-10-15T06:19:13.953Z,1628
2017-10-15T06:20:13.977Z,1660
2017-10-15T06:21:13.950Z,1700
2017-10-15T06:22:13.975Z,1732
2017-10-15T06:23:13.987Z,1780
2017-10-15T06:24:14.012Z,1816
2017-10-15T06:25:14.034Z,1860
2017-10-15T06:26:14.046Z,1900
2017-10-15T06:27:14.072Z,1940
2017-10-15T06:28:14.091Z,1984
2017-10-15T06:29:14.123Z,2020
2017-10-15T06:30:14.456Z,2064
2017-10-15T06:31:14.155Z,2108
2017-10-15T06:32:14.172Z,2148
2017-10-15T06:33:14.188Z,2188
2017-10-15T06:34:14.221Z,2228
2017-10-15T06:35:14.558Z,2272
2017-10-15T06:36:14.314Z,2316
2017-10-15T06:37:14.284Z,2360
2017-10-15T06:38:14.296Z,2404
2017-10-15T06:39:14.401Z,2444
2017-10-15T06:40:14.333Z,2492
2017-10-15T06:41:14.683Z,2536
2017-10-15T06:42:14.376Z,2584
2017-10-15T06:43:14.398Z,2624
2017-10-15T06:44:14.419Z,2672
2017-10-15T06:45:14.785Z,2712
2017-10-15T06:46:14.458Z,2752
2017-10-15T06:47:14.481Z,2796
2017-10-15T06:48:14.502Z,2840
2017-10-15T06:49:14.972Z,2884
2017-10-15T06:50:14.546Z,2928
2017-10-15T06:51:14.566Z,2968
2017-10-15T06:52:14.586Z,3012
2017-10-15T06:53:14.926Z,3056
2017-10-15T06:54:14.628Z,3104
2017-10-15T06:55:14.648Z,3140
2017-10-15T06:56:14.680Z,3188
2017-10-15T06:57:15.015Z,3228
2017-10-15T06:58:15.039Z,3272
2017-10-15T06:59:14.829Z,3312
2017-10-15T07:00:14.760Z,3348
2017-10-15T07:01:14.776Z,3384
2017-10-15T07:02:14.795Z,3424
2017-10-15T07:03:14.828Z,3460
2017-10-15T07:04:14.838Z,3496
2017-10-15T07:05:14.897Z,3528
2017-10-15T07:06:14.878Z,3560
2017-10-15T07:07:14.916Z,3600
2017-10-15T07:08:14.925Z,3636
2017-10-15T07:09:15.009Z,3668
2017-10-15T07:10:14.960Z,3700
2017-10-15T07:11:14.985Z,3732
2017-10-15T07:12:15.010Z,3768
2017-10-15T07:13:15.051Z,3808
2017-10-15T07:14:15.043Z,3840
2017-10-15T07:15:15.393Z,3876
2017-10-15T07:16:15.086Z,3916
2017-10-15T07:17:15.441Z,3952
2017-10-15T07:18:15.777Z,3988
2017-10-15T07:19:15.482Z,4028
2017-10-15T07:20:15.175Z,4064
2017-10-15T07:21:15.198Z,4104
2017-10-15T07:22:15.228Z,4144
2017-10-15T07:23:15.235Z,4180
2017-10-15T07:24:15.255Z,4216
2017-10-15T07:25:15.276Z,4256
2017-10-15T07:26:15.348Z,4296
2017-10-15T07:27:15.324Z,4328
2017-10-15T07:28:15.346Z,4360
2017-10-15T07:29:15.384Z,4332
2017-10-15T07:30:15.389Z,4368
2017-10-15T07:31:15.401Z,4404
2017-10-15T07:32:15.433Z,4432
2017-10-15T07:33:15.447Z,4464
2017-10-15T07:34:15.469Z,4496
2017-10-15T07:35:15.507Z,4528
2017-10-15T07:36:15.512Z,4552
2017-10-15T07:37:15.530Z,4580
2017-10-15T07:38:15.552Z,4600
2017-10-15T07:39:15.572Z,4608
2017-10-15T07:40:15.600Z,4664
2017-10-15T07:41:15.633Z,4700
2017-10-15T07:42:15.640Z,4724
2017-10-15T07:43:15.655Z,4748
2017-10-15T07:44:15.686Z,4764
2017-10-15T07:45:15.714Z,4800
2017-10-15T07:46:15.725Z,4820
2017-10-15T07:47:15.750Z,4856
2017-10-15T07:48:16.102Z,4880
2017-10-15T07:49:15.792Z,4900
2017-10-15T07:50:16.132Z,4924
2017-10-15T07:51:15.832Z,4964
2017-10-15T07:52:15.858Z,4988
2017-10-15T07:53:15.893Z,5012
2017-10-15T07:54:15.897Z,5032
2017-10-15T07:55:15.920Z,5132
2017-10-15T07:56:15.939Z,5152
2017-10-15T07:57:15.975Z,5176
2017-10-15T07:58:16.042Z,5208
2017-10-15T07:59:16.015Z,5240
2017-10-15T08:00:16.038Z,5264
2017-10-15T08:01:16.061Z,5288
2017-10-15T08:02:16.078Z,5324
2017-10-15T08:03:16.105Z,5348
2017-10-15T08:04:16.129Z,5376
2017-10-15T08:05:16.147Z,5408
2017-10-15T08:06:16.489Z,5432
2017-10-15T08:07:16.192Z,5460
2017-10-15T08:08:16.216Z,5488
2017-10-15T08:09:16.241Z,5516
2017-10-15T08:10:16.270Z,5544
2017-10-15T08:11:16.279Z,5568
2017-10-15T08:12:16.302Z,5592
2017-10-15T08:13:16.384Z,5620
2017-10-15T08:14:16.353Z,5652
2017-10-15T08:15:16.385Z,5680
2017-10-15T08:16:16.410Z,5708
2017-10-15T08:17:16.420Z,5736
2017-10-15T08:18:16.444Z,5772
2017-10-15T08:19:16.790Z,5796
2017-10-15T08:20:16.487Z,5820
2017-10-15T08:21:16.838Z,5852
2017-10-15T08:22:16.561Z,5880
2017-10-15T08:23:16.943Z,5912
2017-10-15T08:24:16.786Z,5940
2017-10-15T08:25:16.641Z,5972
2017-10-15T08:26:16.689Z,6000
2017-10-15T08:27:16.652Z,6028
2017-10-15T08:28:16.733Z,6056
2017-10-15T08:29:16.708Z,6080
2017-10-15T08:30:16.714Z,6108
2017-10-15T08:31:17.179Z,6136
2017-10-15T08:32:17.085Z,6160
2017-10-15T08:33:16.781Z,6176
2017-10-15T08:34:16.806Z,6212
2017-10-15T08:35:17.170Z,6232
2017-10-15T08:36:16.852Z,6260
2017-10-15T08:37:17.112Z,6284
2017-10-15T08:38:17.240Z,6300
2017-10-15T08:39:16.932Z,6324
2017-10-15T08:40:17.280Z,6356
2017-10-15T08:41:16.978Z,6376
2017-10-15T08:42:17.001Z,6396
2017-10-15T08:43:17.353Z,6416
2017-10-15T08:44:17.051Z,6432
2017-10-15T08:45:17.092Z,6448
2017-10-15T08:46:17.683Z,6468
2017-10-15T08:47:17.656Z,6488
2017-10-15T08:48:17.137Z,6504
2017-10-15T08:49:17.162Z,6520
2017-10-15T08:50:17.206Z,6532
2017-10-15T08:51:17.221Z,6552
2017-10-15T08:52:17.235Z,6564
2017-10-15T08:53:17.274Z,6580
2017-10-15T08:54:17.308Z,6588
2017-10-15T08:55:17.734Z,6608
2017-10-15T08:56:17.344Z,6596
2017-10-15T08:57:17.690Z,6624
2017-10-15T08:58:17.375Z,6636
2017-10-15T08:59:17.429Z,6648
2017-10-15T09:00:17.766Z,6656
2017-10-15T09:01:17.867Z,6672
2017-10-15T09:02:17.609Z,6700
2017-10-15T09:03:18.648Z,6708
2017-10-15T09:04:17.970Z,6620
2017-10-15T09:05:17.631Z,6740
2017-10-15T09:06:17.587Z,6748
2017-10-15T09:07:17.659Z,6772
2017-10-15T09:08:17.686Z,6792
2017-10-15T09:09:18.013Z,6804
2017-10-15T09:10:17.790Z,6812
2017-10-15T09:11:17.749Z,6824
2017-10-15T09:12:17.792Z,6832
2017-10-15T09:13:17.842Z,6852
2017-10-15T09:14:17.831Z,6852
2017-10-15T09:15:17.911Z,6864
2017-10-15T09:16:17.857Z,6868
2017-10-15T09:17:18.024Z,6880
2017-10-15T09:18:17.970Z,6892
2017-10-15T09:19:17.905Z,6904
2017-10-15T09:20:17.980Z,6912
2017-10-15T09:21:18.695Z,6924
2017-10-15T09:22:18.355Z,6936
2017-10-15T09:23:18.064Z,6948
2017-10-15T09:24:18.057Z,6956
2017-10-15T09:25:18.123Z,6960
2017-10-15T09:26:18.179Z,6968
2017-10-15T09:27:18.498Z,6976
2017-10-15T09:28:18.227Z,6988
2017-10-15T09:29:18.189Z,6996
2017-10-15T09:30:18.251Z,7008
2017-10-15T09:31:18.560Z,7020
2017-10-15T09:32:18.292Z,7028
2017-10-15T09:33:18.276Z,7048
2017-10-15T09:34:18.864Z,7044
2017-10-15T09:35:18.376Z,7060
2017-10-15T09:36:18.310Z,7060
2017-10-15T09:37:18.667Z,7084
2017-10-15T09:38:18.363Z,7092
2017-10-15T09:39:18.394Z,7100
2017-10-15T09:40:18.757Z,7108
2017-10-15T09:41:18.440Z,7112
2017-10-15T09:42:18.463Z,7116
2017-10-15T09:43:18.517Z,7096
2017-10-15T09:44:18.515Z,7104
2017-10-15T09:45:19.228Z,7144
2017-10-15T09:46:18.584Z,7152
2017-10-15T09:47:18.623Z,7168
2017-10-15T09:48:18.618Z,7172
2017-10-15T09:49:18.703Z,7180
2017-10-15T09:50:18.663Z,7196
2017-10-15T09:51:18.690Z,7192
2017-10-15T09:52:18.720Z,7216
2017-10-15T09:53:18.744Z,7228
2017-10-15T09:54:18.791Z,7244
2017-10-15T09:55:18.802Z,7268
2017-10-15T09:56:18.819Z,7284
2017-10-15T09:57:18.841Z,7396
2017-10-15T09:58:18.874Z,13236
2017-10-15T09:59:18.896Z,25536
2017-10-15T10:00:18.919Z,36736
2017-10-15T10:01:18.946Z,41152
2017-10-15T10:02:18.979Z,41632
2017-10-15T10:03:18.999Z,42400
2017-10-15T10:04:19.091Z,39968
2017-10-15T10:05:19.055Z,40736
2017-10-15T10:06:19.089Z,41600
2017-10-15T10:07:19.461Z,39520
2017-10-15T10:08:19.147Z,41440
2017-10-15T10:09:19.155Z,44256
2017-10-15T10:10:19.550Z,44000
2017-10-15T10:11:19.221Z,43904
2017-10-15T10:12:19.257Z,42304
2017-10-15T10:13:19.282Z,43808
2017-10-15T10:14:19.640Z,46432
2017-10-15T10:15:19.328Z,46016
2017-10-15T10:16:19.693Z,47264
2017-10-15T10:17:19.389Z,48064
2017-10-15T10:18:19.422Z,48096
2017-10-15T10:19:19.783Z,48128
2017-10-15T10:20:19.480Z,48032
2017-10-15T10:21:19.572Z,45376
2017-10-15T10:22:19.541Z,46624
2017-10-15T10:23:19.922Z,48992
2017-10-15T10:24:19.931Z,50400
2017-10-15T10:25:19.962Z,50464
2017-10-15T10:26:20.001Z,52768
2017-10-15T10:27:20.043Z,53472
2017-10-15T10:28:20.060Z,50176
2017-10-15T10:29:20.145Z,48320
2017-10-15T10:30:19.802Z,46816
2017-10-15T10:31:19.825Z,50464
2017-10-15T10:32:19.853Z,54048
2017-10-15T10:33:20.408Z,49472
2017-10-15T10:34:20.310Z,51680
2017-10-15T10:35:20.308Z,54240
2017-10-15T10:36:20.325Z,53888
2017-10-15T10:37:20.028Z,53216
2017-10-15T10:38:20.399Z,53344
2017-10-15T10:39:20.427Z,51744
2017-10-15T10:40:20.467Z,55200
2017-10-15T10:41:20.488Z,61792
2017-10-15T10:42:20.527Z,56320
2017-10-15T10:43:20.233Z,51648
2017-10-15T10:44:20.262Z,46176
2017-10-15T10:45:20.345Z,42112
2017-10-15T10:46:20.690Z,35136
2017-10-15T10:47:20.367Z,37184
2017-10-15T10:48:20.399Z,36416
2017-10-15T10:49:20.433Z,34016
2017-10-15T10:50:20.476Z,36896
2017-10-15T10:51:20.495Z,39200
2017-10-15T10:52:20.568Z,45792
2017-10-15T10:53:20.562Z,51296
2017-10-15T10:54:20.611Z,44544
2017-10-15T10:55:20.966Z,34496
2017-10-15T10:56:20.670Z,31424
2017-10-15T10:57:20.705Z,32192
2017-10-15T10:58:20.743Z,34624
2017-10-15T10:59:20.781Z,37216
2017-10-15T11:00:20.815Z,39840
2017-10-15T11:01:20.848Z,44448
2017-10-15T11:02:20.885Z,46400
2017-10-15T11:03:20.917Z,42464
2017-10-15T11:04:20.948Z,42304
2017-10-15T11:05:21.315Z,45536
2017-10-15T11:06:21.033Z,47328
2017-10-15T11:07:21.060Z,46656
2017-10-15T11:08:21.093Z,44960
2017-10-15T11:09:21.130Z,45472
2017-10-15T11:10:21.168Z,49408
2017-10-15T11:11:21.525Z,49696
2017-10-15T11:12:21.237Z,44544
2017-10-15T11:13:21.477Z,43648
2017-10-15T11:14:21.309Z,42496
2017-10-15T11:15:21.345Z,42592
2017-10-15T11:16:21.386Z,42528
2017-10-15T11:17:21.426Z,44384
2017-10-15T11:18:21.652Z,51808
2017-10-15T11:19:21.508Z,53664
2017-10-15T11:20:21.534Z,48992
2017-10-15T11:21:21.576Z,46560
2017-10-15T11:22:21.605Z,50912
2017-10-15T11:23:21.645Z,56704
2017-10-15T11:24:21.684Z,60992
2017-10-15T11:25:21.783Z,61120
2017-10-15T11:26:22.082Z,60800
2017-10-15T11:27:21.788Z,59904
2017-10-15T11:28:21.830Z,59296
2017-10-15T11:29:21.871Z,58592
2017-10-15T11:30:21.902Z,56224
2017-10-15T11:31:22.271Z,55232
2017-10-15T11:32:21.980Z,60096
2017-10-15T11:33:22.020Z,63744
2017-10-15T11:34:22.102Z,65024
2017-10-15T11:35:22.094Z,64192
2017-10-15T11:36:22.123Z,65632
2017-10-15T11:37:22.167Z,68512
2017-10-15T11:38:22.202Z,68352
2017-10-15T11:39:22.243Z,65792
2017-10-15T11:40:22.279Z,57952
2017-10-15T11:41:22.315Z,52224
2017-10-15T11:42:22.350Z,56224
2017-10-15T11:43:22.739Z,65024
2017-10-15T11:44:22.454Z,70272
2017-10-15T11:45:22.471Z,72384
2017-10-15T11:46:22.522Z,73312
2017-10-15T11:47:22.549Z,69312
2017-10-15T11:48:22.920Z,64032
2017-10-15T11:49:22.668Z,61376
2017-10-15T11:50:22.660Z,65824
2017-10-15T11:51:22.698Z,69952
2017-10-15T11:52:22.759Z,70656
2017-10-15T11:53:22.803Z,69504
2017-10-15T11:54:22.836Z,70656
2017-10-15T11:55:22.850Z,73696
2017-10-15T11:56:22.891Z,76032
2017-10-15T11:57:25.406Z,78016
2017-10-15T11:58:24.410Z,81472
2017-10-15T11:59:24.329Z,82080
2017-10-15T12:00:23.042Z,80096
2017-10-15T12:01:24.513Z,77632
2017-10-15T12:02:25.962Z,77984
2017-10-15T12:03:25.809Z,80384
2017-10-15T12:04:25.798Z,82336
2017-10-15T12:05:23.244Z,81056
2017-10-15T12:06:23.275Z,84288
2017-10-15T12:07:23.320Z,83584
2017-10-15T12:08:23.411Z,81728
2017-10-15T12:09:23.422Z,78464
2017-10-15T12:10:23.438Z,78816
2017-10-15T12:11:23.489Z,81760
2017-10-15T12:12:23.522Z,84768
2017-10-15T12:13:23.564Z,83296
2017-10-15T12:14:23.929Z,82432
2017-10-15T12:15:25.193Z,81088
2017-10-15T12:16:25.651Z,85248
2017-10-15T12:17:23.721Z,81216
2017-10-15T12:18:23.763Z,77408
2017-10-15T12:19:23.807Z,66496
2017-10-15T12:20:23.848Z,57472
2017-10-15T12:21:23.886Z,49536
2017-10-15T12:22:23.924Z,57984
2017-10-15T12:23:23.961Z,63776
2017-10-15T12:24:24.076Z,79072
2017-10-15T12:25:24.043Z,89440
2017-10-15T12:26:24.093Z,88832
2017-10-15T12:27:24.450Z,86560
2017-10-15T12:28:24.177Z,86400
2017-10-15T12:29:24.535Z,84768
2017-10-15T12:30:24.569Z,85248
2017-10-15T12:31:24.288Z,83840
2017-10-15T12:32:24.326Z,80832
2017-10-15T12:33:24.383Z,82400
2017-10-15T12:34:24.427Z,80992
2017-10-15T12:35:24.454Z,79296
2017-10-15T12:36:24.498Z,79264
2017-10-15T12:37:24.533Z,79680
2017-10-15T12:38:24.572Z,80448
2017-10-15T12:39:24.616Z,76320
2017-10-15T12:40:24.652Z,72256
2017-10-15T12:41:24.751Z,70912
2017-10-15T12:42:24.736Z,69344
2017-10-15T12:43:24.780Z,71680
2017-10-15T12:44:24.821Z,76000
2017-10-15T12:45:25.177Z,75680
2017-10-15T12:46:24.909Z,72864
2017-10-15T12:47:24.941Z,69408
2017-10-15T12:48:24.978Z,70688
2017-10-15T12:49:25.019Z,72256
2017-10-15T12:50:25.060Z,72064
2017-10-15T12:51:25.427Z,73024
2017-10-15T12:52:25.142Z,71840
2017-10-15T12:53:25.192Z,67040
2017-10-15T12:54:25.224Z,69504
2017-10-15T12:55:25.592Z,70848
2017-10-15T12:56:25.359Z,72288
2017-10-15T12:57:25.347Z,72576
2017-10-15T12:58:25.384Z,72800
2017-10-15T12:59:25.427Z,75104
2017-10-15T13:00:25.468Z,74432
2017-10-15T13:01:25.510Z,70944
2017-10-15T13:02:25.552Z,70720
2017-10-15T13:03:25.584Z,71552
2017-10-15T13:04:25.630Z,73600
2017-10-15T13:05:25.660Z,72960
2017-10-15T13:06:26.032Z,74336
2017-10-15T13:07:25.748Z,72832
2017-10-15T13:08:25.791Z,69056
2017-10-15T13:09:25.827Z,68288
2017-10-15T13:10:25.870Z,66656
2017-10-15T13:11:25.954Z,68480
2017-10-15T13:12:26.276Z,71200
2017-10-15T13:13:25.997Z,70336
2017-10-15T13:14:26.032Z,67520
2017-10-15T13:15:26.395Z,64000
2017-10-15T13:16:26.434Z,59456
2017-10-15T13:17:26.151Z,58496
2017-10-15T13:18:26.197Z,60288
2017-10-15T13:19:26.232Z,65856
2017-10-15T13:20:26.275Z,73120
2017-10-15T13:21:26.362Z,77696
2017-10-15T13:22:26.357Z,79584
2017-10-15T13:23:26.400Z,79328
2017-10-15T13:24:26.437Z,80352
2017-10-15T13:25:26.479Z,81312
2017-10-15T13:26:26.519Z,84288
2017-10-15T13:27:26.558Z,85216
2017-10-15T13:28:26.598Z,84320
2017-10-15T13:29:26.634Z,82496
2017-10-15T13:30:26.685Z,81952
2017-10-15T13:31:26.719Z,82048
2017-10-15T13:32:26.761Z,81408
2017-10-15T13:33:26.806Z,81152
2017-10-15T13:34:26.838Z,77024
2017-10-15T13:35:26.886Z,76128
2017-10-15T13:36:26.917Z,72864
2017-10-15T13:37:27.014Z,67872
2017-10-15T13:38:27.001Z,62336
2017-10-15T13:39:27.053Z,55424
2017-10-15T13:40:27.416Z,52992
2017-10-15T13:41:27.127Z,53984
2017-10-15T13:42:27.160Z,55744
2017-10-15T13:43:27.193Z,59392
2017-10-15T13:44:27.235Z,65120